This is the latest recevied weather packets stored in our database for station/object VK5TRM-13. If no packets are shown the sender has not sent any weather packets the latest 10 day(s).
| Time | Temp. | Humidity | Pressure | Rain* | Wind** | Luminosity | Snow |
|---|---|---|---|---|---|---|---|
| 1777878905 | 20° C | 46% | 1015.1 hPa | 0 mm | - | - | - |
| 1777878005 | 20.56° C | 44% | 1014.9 hPa | 0 mm | - | - | - |
| 1777877105 | 20.56° C | 44% | 1014.9 hPa | 0 mm | - | - | - |
| 1777876205 | 20.56° C | 52% | 1014.5 hPa | 0 mm | - | - | - |
| 1777875305 | 20.56° C | 52% | 1014.5 hPa | 0 mm | - | - | - |
| 1777874405 | 20.56° C | 53% | 1014.4 hPa | 0 mm | - | - | - |
| 1777873504 | 20.56° C | 53% | 1014.4 hPa | 0 mm | - | - | - |
| 1777872605 | 20.56° C | 52% | 1014.2 hPa | 0 mm | - | - | - |
| 1777871705 | 20.56° C | 52% | 1014.2 hPa | 0 mm | - | - | - |
| 1777870804 | 20° C | 52% | 1014.1 hPa | 0 mm | - | - | - |
| 1777869905 | 20° C | 52% | 1014.1 hPa | 0 mm | - | - | - |
| 1777869005 | 20.56° C | 50% | 1013.9 hPa | 0 mm | - | - | - |
| 1777868105 | 20.56° C | 50% | 1013.9 hPa | 0 mm | - | - | - |
| 1777867205 | 19.44° C | 53% | 1014 hPa | 0 mm | - | - | - |
| 1777866305 | 19.44° C | 53% | 1014 hPa | 0 mm | - | - | - |
| 1777865404 | 20° C | 51% | 1014.3 hPa | 0 mm | - | - | - |
| 1777864505 | 20° C | 51% | 1014.3 hPa | 0 mm | - | - | - |
| 1777863605 | 19.44° C | 58% | 1014.8 hPa | 0 mm | - | - | - |
| 1777862705 | 19.44° C | 58% | 1014.8 hPa | 0 mm | - | - | - |
| 1777861805 | 18.33° C | 61% | 1014.8 hPa | 0 mm | - | - | - |
| 1777860904 | 18.33° C | 61% | 1014.8 hPa | 0 mm | - | - | - |
| 1777860004 | 18.89° C | 60% | 1014.9 hPa | 0 mm | - | - | - |
| 1777859105 | 18.89° C | 60% | 1014.9 hPa | 0 mm | - | - | - |
| 1777858205 | 17.78° C | 63% | 1014.8 hPa | 0 mm | - | - | - |
| 1777857305 | 17.78° C | 63% | 1014.8 hPa | 0 mm | - | - | - |
* Rain since midnight (hover to see other rain measurements)
** Current wind speed in m/s (hover to see current wind gust speed)